createdAt,value
2019-03-11T00:00:16.010Z,47.46
2019-03-11T00:02:44.724Z,47.47
2019-03-11T00:05:13.434Z,47.60
2019-03-11T00:07:42.210Z,47.85
2019-03-11T00:10:11.208Z,47.66
2019-03-11T00:12:39.934Z,47.70
2019-03-11T00:15:09.454Z,47.63
2019-03-11T00:17:38.167Z,47.60
2019-03-11T00:20:08.646Z,47.38
2019-03-11T00:22:37.355Z,47.44
2019-03-11T00:25:06.685Z,47.68
2019-03-11T00:27:35.387Z,47.42
2019-03-11T00:30:09.354Z,47.76
2019-03-11T00:32:38.101Z,47.65
2019-03-11T00:35:07.212Z,47.53
2019-03-11T00:37:35.926Z,46.54
2019-03-11T00:40:07.330Z,46.00
2019-03-11T00:42:36.042Z,46.12
2019-03-11T00:45:07.187Z,46.16
2019-03-11T00:47:35.904Z,46.23
2019-03-11T00:50:07.174Z,46.74
2019-03-11T00:52:35.961Z,47.24
2019-03-11T00:55:06.313Z,47.47
2019-03-11T00:57:35.074Z,47.13
2019-03-11T01:00:04.887Z,45.84
2019-03-11T01:02:33.599Z,44.86
2019-03-11T01:05:02.311Z,43.74
2019-03-11T01:07:31.051Z,43.46
2019-03-11T01:09:59.822Z,45.34
2019-03-11T01:12:28.548Z,46.25
2019-03-11T01:14:57.268Z,47.04
2019-03-11T01:17:26.002Z,48.50
2019-03-11T01:19:54.724Z,49.09
2019-03-11T01:22:23.526Z,49.42
2019-03-11T01:24:52.253Z,49.48
2019-03-11T01:27:20.976Z,49.83
2019-03-11T01:29:49.700Z,49.71
2019-03-11T01:32:18.411Z,49.72
2019-03-11T01:34:47.158Z,49.90
2019-03-11T01:37:15.875Z,49.82
2019-03-11T01:39:44.591Z,49.74
2019-03-11T01:42:13.320Z,49.39
2019-03-11T01:44:42.031Z,49.26
2019-03-11T01:47:10.790Z,49.61
2019-03-11T01:49:39.512Z,49.53
2019-03-11T01:52:08.216Z,49.19
2019-03-11T01:54:36.931Z,49.13
2019-03-11T01:57:05.647Z,48.79
2019-03-11T01:59:34.410Z,48.42
2019-03-11T02:02:03.122Z,48.57
2019-03-11T02:04:31.827Z,48.69
2019-03-11T02:07:00.547Z,47.81
2019-03-11T02:09:29.293Z,46.77
2019-03-11T02:11:58.147Z,47.87
2019-03-11T02:14:26.871Z,51.37
2019-03-11T02:16:55.592Z,51.73
2019-03-11T02:19:24.314Z,49.29
2019-03-11T02:21:53.033Z,49.16
2019-03-11T02:24:21.778Z,50.18
2019-03-11T02:26:50.496Z,50.51
2019-03-11T02:29:19.203Z,50.13
2019-03-11T02:31:47.960Z,50.16
2019-03-11T02:34:16.663Z,50.06
2019-03-11T02:36:45.550Z,49.66
2019-03-11T02:39:14.514Z,49.68
2019-03-11T02:41:43.243Z,49.44
2019-03-11T02:44:11.974Z,49.38
2019-03-11T02:46:40.768Z,49.27
2019-03-11T02:49:09.536Z,48.99
2019-03-11T02:51:38.244Z,48.79
2019-03-11T02:54:06.972Z,48.47
2019-03-11T02:56:35.682Z,48.40
2019-03-11T02:59:04.395Z,48.02
2019-03-11T03:01:46.946Z,48.01
2019-03-11T03:04:26.083Z,47.72
2019-03-11T03:06:54.802Z,46.74
2019-03-11T03:09:23.507Z,46.52
2019-03-11T03:11:52.285Z,45.89
2019-03-11T03:14:20.983Z,45.70
2019-03-11T03:16:49.698Z,45.81
2019-03-11T03:19:18.410Z,46.32
2019-03-11T03:21:47.131Z,46.26
2019-03-11T03:24:15.874Z,46.16
2019-03-11T03:26:44.582Z,45.80
2019-03-11T03:29:13.294Z,45.88
2019-03-11T03:31:44.956Z,45.52
2019-03-11T03:34:13.654Z,45.93
2019-03-11T03:36:45.830Z,46.38
2019-03-11T03:39:14.537Z,46.46
2019-03-11T03:41:43.250Z,46.75
2019-03-11T03:44:11.974Z,46.68
2019-03-11T03:46:40.685Z,46.20
2019-03-11T03:49:09.434Z,46.49
2019-03-11T03:51:38.157Z,46.32
2019-03-11T03:54:06.859Z,46.48
2019-03-11T03:56:35.574Z,46.23
2019-03-11T03:59:04.276Z,46.34
2019-03-11T04:01:33.025Z,46.03
2019-03-11T04:04:01.826Z,46.16
2019-03-11T04:06:30.538Z,45.78
2019-03-11T04:08:59.262Z,45.98
2019-03-11T04:11:27.956Z,46.57
2019-03-11T04:13:56.706Z,46.70
2019-03-11T04:16:25.416Z,46.46
2019-03-11T04:18:55.646Z,45.96
2019-03-11T04:21:24.409Z,46.28
2019-03-11T04:23:53.125Z,46.32
2019-03-11T04:26:23.273Z,46.28
2019-03-11T04:28:51.985Z,46.35
2019-03-11T04:31:20.802Z,46.13
2019-03-11T04:33:49.569Z,45.74
2019-03-11T04:36:18.359Z,45.75
2019-03-11T04:38:47.082Z,45.33
2019-03-11T04:41:15.779Z,45.01
2019-03-11T04:43:44.480Z,45.41
2019-03-11T04:46:13.227Z,45.36
2019-03-11T04:48:48.655Z,45.73
2019-03-11T04:51:17.366Z,45.70
2019-03-11T04:53:46.083Z,45.82
2019-03-11T04:56:14.787Z,45.39
2019-03-11T04:58:43.537Z,45.42
2019-03-11T05:01:12.241Z,45.02
2019-03-11T05:03:40.952Z,45.90
2019-03-11T05:06:09.701Z,46.03
2019-03-11T05:08:38.405Z,46.43
2019-03-11T05:11:07.164Z,46.46
2019-03-11T05:13:35.875Z,47.54
2019-03-11T05:16:04.596Z,47.08
2019-03-11T05:18:33.323Z,47.45
2019-03-11T05:21:02.063Z,47.88
2019-03-11T05:23:30.799Z,47.75
2019-03-11T05:25:59.522Z,47.54
2019-03-11T05:28:28.250Z,48.12
2019-03-11T05:30:56.946Z,47.76
2019-03-11T05:33:25.656Z,48.07
2019-03-11T05:35:54.407Z,47.56
2019-03-11T05:38:23.114Z,47.59
2019-03-11T05:40:51.900Z,47.47
2019-03-11T05:43:20.612Z,47.77
2019-03-11T05:45:49.324Z,47.74
2019-03-11T05:48:18.075Z,48.30
2019-03-11T05:50:46.779Z,48.54
2019-03-11T05:53:15.484Z,48.68
2019-03-11T05:55:44.209Z,49.01
2019-03-11T05:58:12.913Z,49.11
2019-03-11T06:00:41.829Z,48.93
2019-03-11T06:03:10.531Z,49.97
2019-03-11T06:05:39.246Z,49.29
2019-03-11T06:08:07.971Z,49.05
2019-03-11T06:10:36.683Z,48.48
2019-03-11T06:13:05.438Z,47.77
2019-03-11T06:15:34.155Z,47.75
2019-03-11T06:18:02.898Z,47.68
2019-03-11T06:20:45.096Z,47.90
2019-03-11T06:23:14.912Z,47.86
2019-03-11T06:25:43.637Z,47.13
2019-03-11T06:28:12.339Z,47.62
2019-03-11T06:30:43.099Z,46.65
2019-03-11T06:33:11.819Z,46.17
2019-03-11T06:35:40.746Z,46.11
2019-03-11T06:38:09.510Z,46.54
2019-03-11T06:40:38.218Z,46.63
2019-03-11T06:43:06.981Z,46.42
2019-03-11T06:45:35.688Z,46.42
2019-03-11T06:48:04.389Z,45.67
2019-03-11T06:50:33.102Z,44.95
2019-03-11T06:53:01.813Z,44.67
2019-03-11T06:55:30.561Z,45.04
2019-03-11T06:57:59.270Z,45.15
2019-03-11T07:00:27.982Z,44.64
2019-03-11T07:02:56.698Z,44.99
2019-03-11T07:05:25.407Z,44.96
2019-03-11T07:07:54.229Z,44.96
2019-03-11T07:10:22.960Z,45.05
2019-03-11T07:12:51.671Z,45.43
2019-03-11T07:15:20.385Z,45.28
2019-03-11T07:17:49.093Z,44.75
2019-03-11T07:20:18.952Z,44.76
2019-03-11T07:22:47.688Z,44.41
2019-03-11T07:25:16.473Z,44.12
2019-03-11T07:27:45.188Z,43.82
2019-03-11T07:30:20.490Z,44.28
2019-03-11T07:32:49.256Z,44.40
2019-03-11T07:35:17.949Z,44.67
2019-03-11T07:37:46.751Z,44.92
2019-03-11T07:40:28.323Z,43.98
2019-03-11T07:42:47.039Z,44.31
2019-03-11T07:45:16.699Z,44.03
2019-03-11T07:47:45.506Z,43.95
2019-03-11T07:50:16.225Z,44.20
2019-03-11T07:52:44.946Z,43.87
2019-03-11T07:55:14.154Z,43.98
2019-03-11T07:57:42.927Z,43.91
2019-03-11T08:00:16.642Z,43.80
2019-03-11T08:02:45.329Z,43.42
2019-03-11T08:05:14.063Z,43.60
2019-03-11T08:07:42.771Z,43.80
2019-03-11T08:10:14.453Z,44.09
2019-03-11T08:12:43.164Z,43.96
2019-03-11T08:15:16.058Z,43.85
2019-03-11T08:17:44.877Z,44.13
2019-03-11T08:20:14.888Z,44.46
2019-03-11T08:22:43.657Z,44.25
2019-03-11T08:25:14.334Z,44.10
2019-03-11T08:27:43.040Z,43.98
2019-03-11T08:30:20.803Z,43.75
2019-03-11T08:32:49.625Z,43.45
2019-03-11T08:35:18.407Z,43.74
2019-03-11T08:37:47.113Z,43.66
2019-03-11T08:40:22.086Z,43.03
2019-03-11T08:42:50.798Z,43.10
2019-03-11T08:45:20.010Z,43.29
2019-03-11T08:47:48.721Z,43.21
2019-03-11T08:50:17.901Z,42.75
2019-03-11T08:52:46.664Z,43.58
2019-03-11T08:55:15.468Z,43.22
2019-03-11T08:57:44.274Z,43.03
2019-03-11T09:00:21.239Z,43.22
2019-03-11T09:05:15.323Z,42.65
2019-03-11T09:07:44.046Z,43.21
2019-03-11T09:10:17.486Z,43.19
2019-03-11T09:12:46.223Z,42.75
2019-03-11T09:15:21.246Z,42.27
2019-03-11T09:17:50.026Z,42.04
2019-03-11T09:20:19.250Z,41.92
2019-03-11T09:22:47.993Z,42.06
2019-03-11T09:25:19.605Z,42.47
2019-03-11T09:27:50.639Z,41.46
2019-03-11T09:30:20.733Z,41.98
2019-03-11T09:32:49.442Z,41.11
2019-03-11T09:35:18.573Z,40.89
2019-03-11T09:37:47.302Z,40.53
2019-03-11T09:40:17.829Z,40.44
2019-03-11T09:42:46.576Z,39.44
2019-03-11T09:45:16.394Z,38.93
2019-03-11T09:47:45.507Z,39.33
2019-03-11T09:50:18.326Z,38.46
2019-03-11T09:52:47.015Z,38.22
2019-03-11T09:55:20.011Z,37.76
2019-03-11T09:57:49.045Z,37.74
2019-03-11T10:00:22.671Z,36.29
2019-03-11T10:02:53.116Z,36.16
2019-03-11T10:05:21.814Z,36.42
2019-03-11T10:07:50.678Z,36.62
2019-03-11T10:10:21.053Z,36.26
2019-03-11T10:12:49.763Z,35.78
2019-03-11T10:15:19.770Z,36.28
2019-03-11T10:17:48.492Z,36.45
2019-03-11T10:20:20.804Z,36.31
2019-03-11T10:22:49.618Z,36.29
2019-03-11T10:25:19.255Z,36.46
2019-03-11T10:27:47.979Z,36.56
2019-03-11T10:30:27.047Z,36.16
2019-03-11T10:32:55.909Z,36.19
2019-03-11T10:35:32.044Z,36.32
2019-03-11T10:37:55.071Z,36.52
2019-03-11T10:40:24.793Z,36.53
2019-03-11T10:42:53.512Z,36.77
2019-03-11T10:45:31.051Z,36.92
2019-03-11T10:47:52.979Z,37.23
2019-03-11T10:50:22.277Z,36.85
2019-03-11T10:52:51.109Z,36.18
2019-03-11T10:55:21.519Z,36.01
2019-03-11T10:57:50.387Z,36.29
2019-03-11T11:00:22.221Z,36.48
2019-03-11T11:02:50.945Z,36.56
2019-03-11T11:05:19.655Z,37.05
2019-03-11T11:07:48.380Z,37.11
2019-03-11T11:10:17.823Z,37.16
2019-03-11T11:12:46.533Z,36.80
2019-03-11T11:15:23.538Z,37.16
2019-03-11T11:17:52.883Z,37.87
2019-03-11T11:20:22.645Z,38.34
2019-03-11T11:22:52.586Z,37.85
2019-03-11T11:25:22.786Z,38.14
2019-03-11T11:27:51.538Z,38.51
2019-03-11T11:30:25.848Z,38.20
2019-03-11T11:32:54.853Z,37.97
2019-03-11T11:35:23.563Z,38.01
2019-03-11T11:37:52.370Z,37.69
2019-03-11T11:40:23.600Z,38.40
2019-03-11T11:42:52.602Z,37.85
2019-03-11T11:45:22.810Z,37.81
2019-03-11T11:47:51.717Z,38.21
2019-03-11T11:50:23.338Z,38.23
2019-03-11T11:52:52.307Z,38.14
2019-03-11T11:55:22.720Z,37.63
2019-03-11T11:57:51.532Z,36.90
2019-03-11T12:00:23.689Z,37.26
2019-03-11T12:02:52.394Z,37.12
2019-03-11T12:05:21.154Z,36.86
2019-03-11T12:07:49.865Z,36.92
2019-03-11T12:10:21.005Z,36.65
2019-03-11T12:12:49.728Z,35.78
2019-03-11T12:15:18.436Z,35.40
2019-03-11T12:17:47.186Z,35.37
2019-03-11T12:20:28.657Z,35.03
2019-03-11T12:22:57.408Z,34.92
2019-03-11T12:25:26.214Z,34.92
2019-03-11T12:27:55.049Z,34.64
2019-03-11T12:30:29.513Z,35.02
2019-03-11T12:32:58.416Z,35.22
2019-03-11T12:35:27.367Z,35.27
2019-03-11T12:37:56.504Z,34.80
2019-03-11T12:40:25.317Z,34.63
2019-03-11T12:42:54.422Z,34.10
2019-03-11T12:45:24.234Z,34.04
2019-03-11T12:47:52.981Z,33.75
2019-03-11T12:50:23.662Z,33.28
2019-03-11T12:52:52.378Z,33.27
2019-03-11T12:55:21.813Z,33.26
2019-03-11T12:57:50.698Z,33.42
2019-03-11T13:00:20.760Z,33.73
2019-03-11T13:02:49.469Z,33.13
2019-03-11T13:05:18.575Z,33.48
2019-03-11T13:07:47.396Z,35.17
2019-03-11T13:10:29.328Z,36.53
2019-03-11T13:12:58.082Z,36.22
2019-03-11T13:15:26.789Z,36.47
2019-03-11T13:17:55.492Z,35.89
2019-03-11T13:20:30.159Z,36.75
2019-03-11T13:22:58.862Z,37.69
2019-03-11T13:25:27.629Z,36.81
2019-03-11T13:27:56.338Z,36.68
2019-03-11T13:30:25.046Z,37.47
2019-03-11T13:32:53.758Z,37.25
2019-03-11T13:35:22.462Z,37.43
2019-03-11T13:37:51.210Z,37.25
2019-03-11T13:40:19.925Z,37.61
2019-03-11T13:42:48.643Z,37.12
2019-03-11T13:45:18.660Z,37.56
2019-03-11T13:47:47.370Z,37.61
2019-03-11T13:50:17.658Z,37.44
2019-03-11T13:52:46.408Z,37.35
2019-03-11T13:55:17.172Z,37.23
2019-03-11T13:57:45.890Z,37.11
2019-03-11T14:00:19.112Z,37.40
2019-03-11T14:02:47.969Z,37.52
2019-03-11T14:05:16.732Z,37.16
2019-03-11T14:07:45.437Z,37.31
2019-03-11T14:10:15.154Z,37.40
2019-03-11T14:12:43.944Z,37.36
2019-03-11T14:15:17.542Z,37.51
2019-03-11T14:17:46.363Z,37.79
2019-03-11T14:20:15.478Z,37.76
2019-03-11T14:22:44.189Z,37.82
2019-03-11T14:25:13.900Z,38.13
2019-03-11T14:27:42.672Z,38.22
2019-03-11T14:30:22.205Z,37.99
2019-03-11T14:32:50.978Z,38.81
2019-03-11T14:35:19.682Z,39.00
2019-03-11T14:37:48.401Z,38.46
2019-03-11T14:40:18.328Z,38.31
2019-03-11T14:45:16.533Z,38.28
2019-03-11T14:47:45.252Z,38.49
2019-03-11T14:50:14.758Z,38.36
2019-03-11T14:52:43.565Z,38.47
2019-03-11T14:55:13.582Z,38.21
2019-03-11T14:57:42.323Z,38.20
2019-03-11T15:00:19.180Z,38.67
2019-03-11T15:02:48.580Z,38.57
2019-03-11T15:05:21.034Z,38.93
2019-03-11T15:07:49.726Z,38.92
2019-03-11T15:10:21.335Z,39.17
2019-03-11T15:12:50.058Z,39.12
2019-03-11T15:15:21.237Z,39.55
2019-03-11T15:17:49.963Z,39.45
2019-03-11T15:20:18.687Z,39.55
2019-03-11T15:22:47.415Z,39.56
2019-03-11T15:25:16.539Z,39.76
2019-03-11T15:27:45.477Z,39.91
2019-03-11T15:30:19.142Z,39.97
2019-03-11T15:32:47.854Z,40.00
2019-03-11T15:35:16.685Z,39.78
2019-03-11T15:37:45.492Z,39.97
2019-03-11T15:40:20.317Z,40.23
2019-03-11T15:42:49.075Z,40.44
2019-03-11T15:45:19.764Z,40.56
2019-03-11T15:47:48.475Z,40.71
2019-03-11T15:50:25.629Z,40.84
2019-03-11T15:52:54.389Z,40.84
2019-03-11T15:55:23.104Z,40.85
2019-03-11T15:57:51.826Z,40.98
2019-03-11T16:00:21.944Z,40.94
2019-03-11T16:02:50.866Z,41.04
2019-03-11T16:05:21.590Z,41.08
2019-03-11T16:07:50.503Z,41.26
2019-03-11T16:10:19.936Z,41.52
2019-03-11T16:12:48.809Z,41.73
2019-03-11T16:15:18.629Z,41.76
2019-03-11T16:17:47.488Z,41.82
2019-03-11T16:20:18.600Z,42.00
2019-03-11T16:22:47.528Z,42.25
2019-03-11T16:25:16.245Z,42.40
2019-03-11T16:27:44.955Z,42.58
2019-03-11T16:30:21.734Z,42.63
2019-03-11T16:33:00.480Z,42.50
2019-03-11T16:35:22.592Z,42.61
2019-03-11T16:37:51.320Z,42.60
2019-03-11T16:40:20.028Z,42.55
2019-03-11T16:42:48.801Z,42.76
2019-03-11T16:45:19.211Z,42.93
2019-03-11T16:47:48.630Z,42.88
2019-03-11T16:50:21.788Z,42.96
2019-03-11T16:52:50.514Z,42.87
2019-03-11T16:55:21.966Z,42.96
2019-03-11T16:57:53.350Z,43.16
2019-03-11T17:00:26.405Z,43.08
2019-03-11T17:02:55.133Z,43.10
2019-03-11T17:05:23.951Z,43.38
2019-03-11T17:07:52.672Z,43.68
2019-03-11T17:10:22.386Z,43.69
2019-03-11T17:12:51.142Z,43.68
2019-03-11T17:15:19.961Z,43.90
2019-03-11T17:17:48.681Z,43.89
2019-03-11T17:20:20.559Z,43.81
2019-03-11T17:22:49.283Z,43.56
2019-03-11T17:25:18.072Z,43.61
2019-03-11T17:27:46.778Z,43.87
2019-03-11T17:30:29.109Z,43.77
2019-03-11T17:32:57.821Z,43.91
2019-03-11T17:35:26.582Z,43.97
2019-03-11T17:37:55.339Z,44.02
2019-03-11T17:40:25.623Z,44.06
2019-03-11T17:42:54.474Z,43.98
2019-03-11T17:45:23.179Z,44.01
2019-03-11T17:47:52.120Z,44.01
2019-03-11T17:50:21.791Z,43.89
2019-03-11T17:52:50.720Z,43.97
2019-03-11T17:55:20.564Z,43.96
2019-03-11T17:57:49.380Z,43.87
2019-03-11T18:00:25.620Z,43.82
2019-03-11T18:02:59.444Z,43.94
2019-03-11T18:05:28.168Z,44.39
2019-03-11T18:07:56.891Z,44.67
2019-03-11T18:10:25.619Z,45.08
2019-03-11T18:12:54.330Z,45.12
2019-03-11T18:15:23.198Z,45.07
2019-03-11T18:17:51.912Z,45.05
2019-03-11T18:20:21.327Z,45.24
2019-03-11T18:22:50.156Z,45.54
2019-03-11T18:25:20.088Z,45.71
2019-03-11T18:27:49.240Z,45.54
2019-03-11T18:30:26.410Z,45.79
2019-03-11T18:32:57.310Z,45.69
2019-03-11T18:35:27.080Z,45.66
2019-03-11T18:38:04.236Z,45.96
2019-03-11T18:40:26.915Z,45.95
2019-03-11T18:42:55.629Z,46.19
2019-03-11T18:45:24.376Z,46.19
2019-03-11T18:47:53.083Z,45.39
2019-03-11T18:50:25.352Z,45.62
2019-03-11T18:52:54.136Z,45.78
2019-03-11T18:55:22.961Z,46.02
2019-03-11T18:57:51.850Z,46.25
2019-03-11T19:00:24.333Z,46.27
2019-03-11T19:02:53.027Z,46.68
2019-03-11T19:05:22.931Z,46.93
2019-03-11T19:07:51.731Z,46.71
2019-03-11T19:10:21.511Z,46.85
2019-03-11T19:12:50.365Z,46.70
2019-03-11T19:15:23.956Z,46.79
2019-03-11T19:17:52.515Z,46.80
2019-03-11T19:20:22.927Z,46.92
2019-03-11T19:22:51.705Z,46.97
2019-03-11T19:25:20.540Z,47.39
2019-03-11T19:27:49.335Z,47.73
2019-03-11T19:30:25.914Z,47.88
2019-03-11T19:32:54.691Z,47.96
2019-03-11T19:35:23.511Z,48.39
2019-03-11T19:37:52.325Z,48.37
2019-03-11T19:40:22.955Z,48.53
2019-03-11T19:42:51.665Z,48.78
2019-03-11T19:45:20.413Z,48.71
2019-03-11T19:47:49.149Z,48.74
2019-03-11T19:50:21.090Z,49.18
2019-03-11T19:52:58.297Z,48.93
2019-03-11T19:55:20.411Z,48.67
2019-03-11T19:57:49.116Z,48.82
2019-03-11T20:00:25.010Z,49.37
2019-03-11T20:02:53.762Z,49.92
2019-03-11T20:05:34.866Z,51.20
2019-03-11T20:08:03.689Z,54.01
2019-03-11T20:10:32.365Z,55.37
2019-03-11T20:13:01.101Z,56.37
2019-03-11T20:15:29.872Z,56.20
2019-03-11T20:17:58.614Z,57.06
2019-03-11T20:20:27.464Z,57.36
2019-03-11T20:22:56.201Z,57.53
2019-03-11T20:25:35.728Z,57.74
2019-03-11T20:28:04.733Z,57.87
2019-03-11T20:30:33.510Z,58.20
2019-03-11T20:33:03.978Z,58.47
2019-03-11T20:35:32.671Z,58.30
2019-03-11T20:38:01.462Z,58.45
2019-03-11T20:40:30.204Z,58.68
2019-03-11T20:42:59.027Z,58.60
2019-03-11T20:45:27.937Z,58.75
2019-03-11T20:47:56.736Z,58.78
2019-03-11T20:50:25.526Z,58.96
2019-03-11T20:52:54.246Z,58.89
2019-03-11T20:55:22.979Z,58.73
2019-03-11T20:57:51.721Z,59.18
2019-03-11T21:00:21.942Z,59.30
2019-03-11T21:02:50.883Z,59.23
2019-03-11T21:05:28.802Z,59.51
2019-03-11T21:07:57.483Z,59.50
2019-03-11T21:10:26.212Z,59.63
2019-03-11T21:12:54.907Z,59.64
2019-03-11T21:15:23.699Z,60.01
2019-03-11T21:17:52.424Z,59.98
2019-03-11T21:20:21.195Z,60.12
2019-03-11T21:22:49.973Z,60.31
2019-03-11T21:25:20.267Z,60.61
2019-03-11T21:27:49.019Z,60.29
2019-03-11T21:30:25.544Z,60.25
2019-03-11T21:32:54.437Z,60.14
2019-03-11T21:35:23.164Z,60.32
2019-03-11T21:37:52.136Z,60.53
2019-03-11T21:40:22.769Z,60.39
2019-03-11T21:42:51.608Z,60.47
2019-03-11T21:45:33.021Z,60.64
2019-03-11T21:47:51.376Z,60.74
2019-03-11T21:50:25.602Z,60.74
2019-03-11T21:52:54.318Z,60.90
2019-03-11T21:55:23.210Z,61.68
2019-03-11T21:57:52.042Z,61.53
2019-03-11T22:00:33.852Z,61.68
2019-03-11T22:02:54.899Z,61.86
2019-03-11T22:05:23.826Z,62.08
2019-03-11T22:07:52.539Z,62.31
2019-03-11T22:10:21.805Z,62.26
2019-03-11T22:12:50.617Z,62.43
2019-03-11T22:15:23.268Z,62.78
2019-03-11T22:17:52.029Z,63.19
2019-03-11T22:20:20.741Z,63.34
2019-03-11T22:22:49.454Z,63.30
2019-03-11T22:25:20.198Z,63.89
2019-03-11T22:27:49.120Z,64.24
2019-03-11T22:30:22.323Z,64.50
2019-03-11T22:32:51.184Z,64.81
2019-03-11T22:35:19.995Z,65.08
2019-03-11T22:37:48.702Z,65.16
2019-03-11T22:40:20.937Z,65.22
2019-03-11T22:42:49.657Z,65.38
2019-03-11T22:45:22.081Z,65.56
2019-03-11T22:47:51.270Z,65.58
2019-03-11T22:50:20.183Z,65.62
2019-03-11T22:52:48.895Z,65.41
2019-03-11T22:55:19.449Z,65.37
2019-03-11T22:57:48.161Z,65.59
2019-03-11T23:00:26.887Z,65.59
2019-03-11T23:02:55.608Z,65.92
2019-03-11T23:05:24.322Z,65.94
2019-03-11T23:07:53.070Z,65.99
2019-03-11T23:10:21.789Z,65.83
2019-03-11T23:12:50.498Z,65.63
2019-03-11T23:15:19.216Z,65.92
2019-03-11T23:17:47.934Z,66.07
2019-03-11T23:20:16.684Z,66.17
2019-03-11T23:22:45.399Z,65.94
2019-03-11T23:25:14.113Z,65.85
2019-03-11T23:27:42.836Z,65.66
2019-03-11T23:30:14.147Z,65.49
2019-03-11T23:32:43.491Z,65.49
2019-03-11T23:35:12.194Z,65.44
2019-03-11T23:37:40.908Z,65.65
2019-03-11T23:40:10.227Z,65.75
2019-03-11T23:42:39.672Z,66.01
2019-03-11T23:45:10.548Z,66.05
2019-03-11T23:47:39.263Z,66.28
2019-03-11T23:50:12.977Z,66.49
2019-03-11T23:52:43.426Z,66.59
2019-03-11T23:55:12.739Z,66.47
2019-03-11T23:57:41.446Z,66.97
